Weather observations for the past three days for
Minocqua/Woodruff, Lakeland Airport/Noble F. Lee Memorial Field
Imperial (Metric)
Date Time (cdt) Wind (mph) Vis. (mi.) Weather Sky Cond. Temperature (ºF) Relative Humidity Wind Chill (°F) Heat Index (°F) Pressure Precipitation (in)
Air Dwpt 6 hour altimeter (in) sea level (mb) 1 hr 3 hr 6 hr
Max. Min.
04 16:55 SE 6 10.00 Overcast BKN015 OVC021 71.6 68 88% 29.96 0.0
04 16:35 SE 5 10.00 Overcast BKN015 OVC020 71.6 68 88% 29.96 0.0
04 16:15 SE 5 10.00 Overcast OVC015 71.6 68 88% 29.96 0.0
04 15:55 Calm 10.00 Overcast OVC014 71.6 69.8 94% 29.96 0.0
04 15:35 Calm 10.00 Overcast BKN012 OVC017 71.6 68 88% 29.96 0.0
04 15:15 Calm 10.00 Overcast OVC012 73.4 68 83% 29.96 0.0
04 14:55 Calm 10.00 Overcast OVC008 71.6 68 88% 29.96 0.0
04 14:35 SE 5 10.00 Overcast OVC008 73.4 68 83% 29.96 0.0
04 14:15 Calm 10.00 Overcast BKN006 OVC026 71.6 68 88% 29.96 0.0
04 13:55 E 3 10.00 Overcast OVC004 69.8 68 94% 29.96 0.0
04 13:35 Calm 10.00 Overcast OVC004 69.8 68 94% 29.96 0.0
04 13:15 E 5 10.00 Overcast OVC004 69.8 68 94% 29.96 0.0
04 12:55 E 3 10.00 Overcast OVC004 69.8 68 94% 29.96 0.0
04 12:35 Calm 10.00 Overcast OVC004 69.8 68 94% 29.96 0.0
04 12:15 E 3 10.00 Overcast OVC004 69.8 68 94% 29.96 0.0
04 11:55 SE 3 10.00 Overcast OVC004 68 68 100% 29.96 0.0
04 11:35 SE 3 10.00 Overcast OVC004 68 66.2 94% 29.96 0.0
04 11:15 SE 5 7.00 Overcast OVC002 68 66.2 94% 29.96 0.0
04 10:55 E 3 3.00 Fog/Mist OVC002 66.2 64.4 94% 29.95 0.0
04 10:35 Calm 3.00 Fog/Mist OVC004 66.2 64.4 94% 29.95 0.0
04 10:15 Calm 4.00 Fog/Mist OVC004 66.2 64.4 94% 29.96 0.0
04 09:55 SE 3 4.00 Fog/Mist OVC004 64.4 64.4 100% 29.96 0.0
04 09:35 SE 6 5.00 Fog/Mist OVC004 64.4 64.4 100% 29.95 0.0
04 09:15 SE 5 10.00 Overcast OVC004 64.4 64.4 100% 29.95 0.0
04 08:55 SE 5 10.00 Overcast OVC004 64.4 64.4 100% 29.95 0.0
04 08:35 SE 6 10.00 Overcast OVC004 64.4 62.6 94% 29.95 0.0
04 08:15 SE 6 10.00 Overcast OVC004 64.4 62.6 94% 29.94 0.0
04 07:55 S 8 10.00 Overcast OVC004 62.6 62.6 100% 29.93 0.0
04 07:35 S 7 7.00 Overcast OVC004 62.6 62.6 100% 29.93 0.0
04 07:15 SE 6 4.00 Fog/Mist OVC004 62.6 62.6 100% 29.93 0.0
04 06:55 SE 7 2.00 Fog/Mist OVC004 62.6 62.6 100% 29.91 0.0
04 06:35 SE 6 2.50 Fog/Mist OVC004 62.6 62.6 100% 29.92 0.0
04 06:15 SE 7 3.00 Fog/Mist OVC004 62.6 62.6 100% 29.92 0.0
04 05:55 SE 6 4.00 Fog/Mist OVC004 62.6 62.6 100% 29.93 0.0
04 05:35 SE 9 4.00 Light Drizzle OVC004 62.6 62.6 100% 29.92 0.0
04 05:15 SE 5 5.00 Fog/Mist OVC006 62.6 62.6 100% 29.93 0.0
04 04:55 SE 8 10.00 Overcast OVC006 64.4 62.6 94% 29.93 0.0
04 04:35 SE 7 10.00 Overcast OVC006 64.4 62.6 94% 29.93 0.0
04 04:15 SE 10 10.00 Overcast OVC006 64.4 62.6 94% 29.93 0.0
04 03:55 SE 8 10.00 Overcast OVC004 64.4 62.6 94% 29.93 0.0
04 03:35 E 6 10.00 Overcast OVC004 64.4 64.4 100% 29.93 0.0
04 03:15 E 5 10.00 Overcast OVC004 64.4 64.4 100% 29.93 0.0
04 02:55 NE 5 10.00 Overcast OVC004 64.4 64.4 100% 29.92 0.0
04 02:35 Calm 10.00 Overcast OVC006 66.2 64.4 94% 29.93 0.0
04 02:15 SE 5 10.00 Overcast OVC006 66.2 64.4 94% 29.92 0.0
04 01:55 SE 6 10.00 Thunderstorm in Vicinity OVC006 66.2 66.2 100% 29.93 0.0
04 01:35 SE 5 10.00 Overcast OVC006 66.2 66.2 100% 29.93 0.0
04 01:15 S 3 10.00 Overcast OVC006 66.2 66.2 100% 29.94 0.0
04 00:55 SE 7 10.00 Overcast OVC006 66.2 66.2 100% 29.92 0.0
04 00:35 SE 7 10.00 Thunderstorm in Vicinity OVC004 66.2 66.2 100% 29.92 0.0
04 00:10 SE 6 10.00 Overcast OVC004 66.2 66.2 100% 29.93 0.0
03 23:55 SE 6 10.00 Overcast OVC004 66.2 66.2 100% 29.94 0.0
03 23:15 SE 6 10.00 Overcast OVC006 66.2 66.2 100% 29.94 0.0
03 22:55 SE 8 10.00 Thunderstorm BKN006 BKN014 OVC070 66.2 64.4 94% 29.95 0.0 0.2
03 22:35 SE 8 10.00 Heavy Rain OVC006 68 64.4 88% 29.96 0.0
03 22:15 SE 6 10.00 Overcast OVC008 68 64.4 88% 29.96 0.0
03 21:55 SE 10 10.00 Light Rain OVC008 68 64.4 88% 29.95 0.0
03 21:35 SE 7 10.00 Overcast OVC008 68 64.4 88% 29.95 0.0
03 21:15 SE 6 10.00 Overcast OVC008 68 64.4 88% 29.95 0.0
03 20:55 SE 9 10.00 Overcast OVC008 68 64.4 88% 29.95 0.0
03 20:35 SE 8 10.00 Overcast OVC008 68 64.4 88% 29.95 0.0
03 20:15 SE 9 10.00 Overcast OVC010 69.8 64.4 83% 29.95 0.0
03 19:55 SE 6 10.00 Overcast OVC010 69.8 64.4 83% 29.95 0.0
03 19:35 SE 7 10.00 Overcast OVC012 69.8 66.2 88% 29.95 0.0
03 19:15 S 8 10.00 Overcast OVC012 69.8 66.2 88% 29.95 0.0
03 18:55 S 10 10.00 Mostly Cloudy BKN014 69.8 66.2 88% 29.95 0.0
03 18:35 S 7 10.00 Fair CLR 71.6 66.2 83% 29.94 0.0
03 18:15 S 10 10.00 Partly Cloudy SCT085 73.4 66.2 78% 29.94 0.0
03 17:55 S 8 10.00 Mostly Cloudy BKN085 73.4 68 83% 29.94 0.0
03 17:35 S 9 10.00 Mostly Cloudy BKN085 BKN110 75.2 68 78% 76 29.93 0.0
03 17:15 S 9 10.00 Mostly Cloudy BKN085 77 68 74% 79 29.93 0.0
03 16:55 SE 9 10.00 Mostly Cloudy BKN075 BKN090 78.8 66.2 65% 81 29.91 0.0
03 16:35 S 7 10.00 Overcast OVC075 78.8 66.2 65% 81 29.92 0.0
03 16:15 SW 6 10.00 Overcast OVC065 78.8 66.2 65% 81 29.92 0.0
03 15:55 S 7 10.00 Overcast BKN065 OVC075 80.6 64.4 58% 82 29.93 0.0
03 15:35 SE 5 10.00 Overcast OVC060 78.8 64.4 61% 81 29.93 0.0
03 15:15 S 3 10.00 Overcast BKN060 OVC070 77 64.4 65% 79 29.93 0.0
03 14:55 S 7 10.00 Partly Cloudy SCT060 77 64.4 65% 79 29.93 0.0
03 14:35 SE 5 10.00 Fair CLR 77 64.4 65% 79 29.94 0.0
03 14:15 E 5 10.00 Fair CLR 77 64.4 65% 79 29.93 0.0
03 13:55 S 8 10.00 Fair CLR 73.4 64.4 74% 29.94 0.0
03 13:35 SE 6 10.00 Fair CLR 73.4 64.4 74% 29.94 0.0
03 13:15 SE 6 10.00 Partly Cloudy SCT013 SCT070 71.6 64.4 78% 29.95 0.0
03 12:55 SE 9 10.00 Mostly Cloudy BKN015 BKN070 69.8 64.4 83% 29.96 0.0
03 12:35 SE 8 10.00 Mostly Cloudy BKN017 68 62.6 83% 29.96 0.0
03 12:15 SE 7 10.00 Overcast SCT010 BKN019 OVC027 68 62.6 83% 29.96 0.0
03 11:55 E 6 10.00 Overcast SCT010 BKN022 OVC033 64.4 62.6 94% 29.98 0.0 0.13
03 11:35 S 3 10.00 Overcast SCT014 BKN020 OVC043 64.4 62.6 94% 29.99 0.0 0.13
03 11:15 Calm 1.25 Heavy Rain BKN013 OVC022 62.6 60.8 94% 29.99 0.0 0.13
03 10:55 S 5 7.00 Rain SCT022 BKN031 OVC039 64.4 59 83% 29.99 0.0
03 10:35 Calm 10.00 Overcast SCT021 BKN035 OVC046 64.4 59 83% 29.99 0.0
03 10:15 SE 3 10.00 Thunderstorm Light Rain BKN030 BKN047 OVC060 64.4 59 83% 29.99 0.0
03 09:55 SE 5 10.00 Light Rain SCT028 SCT050 OVC060 66.2 59 78% 29.99 0.0
03 09:35 SE 6 10.00 Overcast OVC060 66.2 59 78% 29.98 0.0
03 09:15 E 7 10.00 Mostly Cloudy SCT031 BKN050 66.2 57.2 73% 29.97 0.0
03 08:55 SE 7 10.00 Partly Cloudy SCT029 SCT080 SCT090 64.4 57.2 78% 29.98 0.0
03 08:35 SE 5 10.00 Mostly Cloudy SCT029 BKN080 64.4 57.2 78% 29.98 0.0
03 08:15 SE 6 10.00 Partly Cloudy SCT080 64.4 55.4 73% 29.98 0.0
03 07:55 E 5 10.00 Mostly Cloudy SCT060 BKN080 62.6 55.4 77% 29.96 0.0
03 07:35 SE 7 10.00 Overcast SCT060 OVC080 62.6 57.2 83% 29.97 0.0
03 07:15 SE 5 10.00 Mostly Cloudy BKN080 60.8 57.2 88% 29.98 0.0
03 06:55 SE 3 10.00 Partly Cloudy SCT080 60.8 57.2 88% 29.98 0.0
03 06:35 SE 3 10.00 Fair CLR 60.8 57.2 88% 29.96 0.0
03 06:15 Calm 10.00 Fair CLR 59 57.2 94% 29.96 0.0
03 05:55 Calm 10.00 Fair CLR 59 55.4 88% 29.96 0.0
03 05:35 Calm 10.00 Fair CLR 59 57.2 94% 29.95 0.0
03 05:15 Calm 10.00 Fair CLR 59 55.4 88% 29.96 0.0
03 04:55 Calm 10.00 Fair CLR 59 55.4 88% 29.96 0.0
03 04:35 Calm 10.00 Fair CLR 59 55.4 88% 29.96 0.0
03 04:15 Calm 10.00 Fair CLR 59 55.4 88% 29.96 0.0
03 03:55 Calm 10.00 Fair CLR 59 55.4 88% 29.96 0.0
03 03:35 Calm 10.00 Fair CLR 59 55.4 88% 29.96 0.0
03 03:15 Calm 10.00 Fair CLR 59 55.4 88% 29.96 0.0
03 02:55 Calm 10.00 Fair CLR 60.8 55.4 83% 29.96 0.0
03 02:35 Calm 10.00 Fair CLR 59 55.4 88% 29.96 0.0
03 02:15 Calm 10.00 Fair CLR 60.8 55.4 83% 29.96 0.0
03 01:55 Calm 10.00 Fair CLR 60.8 55.4 83% 29.97 0.0
03 01:35 Calm 10.00 Fair CLR 60.8 55.4 83% 29.97 0.0
03 01:15 Calm 10.00 Fair CLR 59 55.4 88% 29.98 0.0
03 00:55 Calm 10.00 Fair CLR 60.8 55.4 83% 29.97 0.0
03 00:35 Calm 10.00 Fair CLR 60.8 55.4 83% 29.98 0.0
03 00:15 Calm 10.00 Fair CLR 60.8 55.4 83% 29.98 0.0
02 23:55 Calm 10.00 Partly Cloudy SCT090 62.6 55.4 77% 29.97 0.0
02 23:35 Calm 10.00 Partly Cloudy SCT090 62.6 55.4 77% 29.98 0.0
02 23:15 Calm 10.00 Partly Cloudy SCT100 64.4 55.4 73% 29.97 0.0
02 22:55 Calm 10.00 Partly Cloudy SCT100 64.4 55.4 73% 29.96 0.0
02 22:35 Calm 10.00 Mostly Cloudy BKN100 66.2 55.4 68% 29.96 0.0
02 22:15 Calm 10.00 Mostly Cloudy BKN100 68 55.4 64% 29.96 0.0
02 21:55 Calm 10.00 Fair CLR 66.2 55.4 68% 29.96 0.0
02 21:35 Calm 10.00 Fair CLR 68 55.4 64% 29.96 0.0
02 21:15 Calm 10.00 Fair CLR 69.8 55.4 60% 29.96 0.0
02 20:55 Calm 10.00 Fair CLR 69.8 55.4 60% 29.96 0.0
02 20:35 NE 3 10.00 Fair CLR 71.6 55.4 57% 29.95 0.0
02 20:15 NE 5 10.00 Fair CLR 73.4 55.4 53% 29.93 0.0
02 19:55 NE 8 10.00 Fair CLR 73.4 55.4 53% 29.93 0.0
02 19:35 N 9 10.00 Fair CLR 71.6 55.4 57% 29.92 0.0
02 19:15 Calm 10.00 Fair CLR 73.4 57.2 57% 29.92 0.0
02 18:55 Calm 10.00 Fair CLR 78.8 55.4 45% 79 29.92 0.0
02 18:35 N 3 10.00 Fair CLR 80.6 53.6 39% 80 29.91 0.0
02 18:15 Calm 10.00 Fair CLR 80.6 53.6 39% 80 29.91 0.0
02 17:55 Calm 10.00 Fair CLR 80.6 53.6 39% 80 29.91 0.0
02 17:35 SW 5 10.00 Fair CLR 80.6 53.6 39% 80 29.91 0.0
02 17:15 Calm 10.00 Partly Cloudy SCT085 80.6 53.6 39% 80 29.92 0.0
02 16:55 SW 5 10.00 Overcast SCT001 OVC085 80.6 53.6 39% 80 29.92 0.0
02 16:35 W 5 10.00 Overcast SCT001 OVC085 80.6 53.6 39% 80 29.92 0.0
02 16:15 NW 5 10.00 Overcast OVC085 80.6 53.6 39% 80 29.92 0.0
02 15:55 W 6 10.00 Mostly Cloudy BKN085 BKN100 80.6 53.6 39% 80 29.93 0.0
02 15:35 Calm 10.00 Mostly Cloudy BKN100 80.6 53.6 39% 80 29.92 0.0
02 15:15 W 5 10.00 Partly Cloudy SCT110 78.8 53.6 42% 79 29.93 0.0
02 14:55 W 3 10.00 Partly Cloudy SCT100 78.8 53.6 42% 79 29.93 0.0
02 14:35 N 5 10.00 Fair CLR 80.6 55.4 42% 81 29.93 0.0
02 14:15 NW 3 10.00 Fair CLR 78.8 55.4 45% 79 29.94 0.0
02 13:55 SW 7 10.00 Fair CLR 78.8 55.4 45% 79 29.94 0.0
02 13:35 Calm 10.00 Fair CLR 78.8 55.4 45% 79 29.95 0.0
02 13:15 NW 6 10.00 Fair CLR 78.8 53.6 42% 79 29.96 0.0
02 12:55 W 7 10.00 Fair CLR 77 51.8 42% 78 29.95 0.0
02 12:35 Calm 10.00 Fair CLR 77 53.6 44% 78 29.95 0.0
02 12:15 Calm 10.00 Fair CLR 77 53.6 44% 78 29.95 0.0
02 11:55 Calm 10.00 Fair CLR 75.2 55.4 50% 78 29.95 0.0
02 11:35 W 5 10.00 Fair CLR 73.4 55.4 53% 29.95 0.0
02 11:15 N 3 10.00 Fair CLR 73.4 57.2 57% 29.95 0.0
02 10:55 N 6 10.00 Fair CLR 71.6 59 65% 29.96 0.0
02 10:35 N 5 10.00 Fair CLR 69.8 57.2 64% 29.95 0.0
02 10:15 N 5 10.00 Fair CLR 69.8 59 69% 29.96 0.0
02 09:55 W 3 0.00 Fair CLR 68 59 73% 29.96 0.0
02 09:35 W 5 10.00 Partly Cloudy SCT100 68 59 73% 29.96 0.0
02 09:15 SW 6 10.00 Mostly Cloudy BKN090 64.4 59 83% 29.98 0.0
02 08:55 SW 7 10.00 Partly Cloudy SCT100 64.4 60.8 88% 29.99 0.0
02 08:35 SW 9 10.00 Partly Cloudy SCT100 62.6 60.8 94% 29.99 0.0
02 08:15 SW 7 10.00 Partly Cloudy SCT100 62.6 60.8 94% 29.99 0.0
02 07:55 SW 3 10.00 Mostly Cloudy BKN110 60.8 59 94% 29.97 0.0
02 07:35 Calm 10.00 Partly Cloudy SCT110 60.8 59 94% 29.95 0.0
02 07:15 Calm 10.00 Partly Cloudy SCT110 59 59 100% 29.96 0.0
02 06:55 Calm 10.00 Mostly Cloudy BKN100 60.8 59 94% 29.95 0.0
02 06:35 Calm 10.00 Overcast OVC100 59 59 100% 29.95 0.0
02 06:15 N 3 10.00 Light Rain OVC110 59 59 100% 29.94 0.0
02 05:55 Calm 10.00 Light Rain BKN120 59 59 100% 29.94 0.0
02 05:35 Calm 10.00 Light Rain SCT120 60.8 59 94% 29.97 0.0
02 05:15 Calm 10.00 Light Rain SCT085 OVC120 60.8 57.2 88% 29.99 0.0
02 04:55 S 5 10.00 Light Rain OVC085 60.8 57.2 88% 29.99 0.0
02 04:35 SW 6 10.00 Light Rain BKN095 BKN120 60.8 59 94% 29.99 0.0
02 04:15 S 6 10.00 Light Rain BKN095 59 57.2 94% 29.98 0.0
02 03:55 Calm 10.00 Mostly Cloudy SCT095 BKN120 60.8 55.4 83% 29.96 0.0
02 03:35 Calm 10.00 Partly Cloudy SCT120 60.8 55.4 83% 29.95 0.0
02 03:15 Calm 10.00 Partly Cloudy SCT120 59 55.4 88% 29.96 0.0
02 02:55 Calm 10.00 Partly Cloudy SCT120 59 55.4 88% 29.96 0.0
02 02:35 Calm 10.00 Partly Cloudy SCT120 59 55.4 88% 29.95 0.0
02 02:15 Calm 10.00 Fair CLR 59 55.4 88% 29.95 0.0
02 01:55 Calm 10.00 Partly Cloudy SCT120 60.8 55.4 83% 29.94 0.0
02 01:35 Calm 10.00 Fair CLR 59 55.4 88% 29.96 0.0
02 01:15 Calm 10.00 Fair CLR 59 55.4 88% 29.96 0.0
02 00:55 Calm 10.00 Fair CLR 59 55.4 88% 29.96 0.0
02 00:35 Calm 10.00 Fair CLR 59 55.4 88% 29.96 0.0
02 00:15 Calm 10.00 Fair CLR 60.8 55.4 83% 29.96 0.0
01 23:55 Calm 10.00 Fair CLR 60.8 55.4 83% 29.96 0.0
01 23:35 Calm 10.00 Fair CLR 60.8 55.4 83% 29.96 0.0
01 23:15 Calm 10.00 Fair CLR 60.8 55.4 83% 29.96 0.0
01 22:55 Calm 10.00 Fair CLR 60.8 55.4 83% 29.96 0.0
01 22:35 Calm 10.00 Fair CLR 60.8 55.4 83% 29.95 0.0
01 21:55 Calm 10.00 Fair CLR 62.6 55.4 77% 29.96 0.0
01 21:35 Calm 10.00 Fair CLR 64.4 55.4 73% 29.95 0.0
01 21:15 Calm 10.00 Fair CLR 66.2 55.4 68% 29.94 0.0
01 20:55 Calm 10.00 Fair CLR 68 55.4 64% 29.94 0.0
01 20:35 Calm 10.00 Fair CLR 69.8 55.4 60% 29.94 0.0
01 20:15 Calm 10.00 Fair CLR 71.6 55.4 57% 29.93 0.0
01 19:55 Calm 10.00 Fair CLR 73.4 55.4 53% 29.93 0.0
01 19:35 Calm 10.00 Fair CLR 73.4 55.4 53% 29.93 0.0
01 19:15 W 3 10.00 Fair CLR 77 53.6 44% 78 29.93 0.0
01 18:55 Calm 10.00 Fair CLR 78.8 51.8 39% 79 29.91 0.0
01 18:35 W 5 10.00 Fair CLR 80.6 51.8 37% 80 29.91 0.0
01 18:15 W 6 10.00 Fair CLR 80.6 50 34% 80 29.91 0.0
01 17:55 NW 6 10.00 Fair CLR 82.4 51.8 35% 81 29.91 0.0
01 17:30 NW 6 10.00 Fair CLR 82.4 51.8 35% 81 29.91 0.0
01 17:15 W 9 10.00 Fair CLR 82.4 50 32% 81 29.91 0.0
Date Time (cdt) Wind (mph) Vis. (mi.) Weather Sky Cond. Air Dwpt Max. Min. Relative Humidity Wind Chill (°F) Heat Index (°F) altimeter (in) sea level (mb) 1 hr 3 hr 6 hr
6 hour
Temperature (ºF) Pressure Precipitation (in)